sensor_id;sensor_type;location;lat;lon;timestamp;P1;durP1;ratioP1;P2;durP2;ratioP2
54815;SDS011;40715;55.752;37.884;2023-07-02T00:00:09;0.00;;;0.00;;
54815;SDS011;40715;55.752;37.884;2023-07-02T00:02:37;0.00;;;0.00;;
54815;SDS011;40715;55.752;37.884;2023-07-02T00:05:05;0.00;;;0.00;;
54815;SDS011;40715;55.752;37.884;2023-07-02T00:07:34;0.00;;;0.00;;
54815;SDS011;40715;55.752;37.884;2023-07-02T00:10:03;0.00;;;0.00;;
54815;SDS011;40715;55.752;37.884;2023-07-02T00:12:31;0.00;;;0.00;;
54815;SDS011;40715;55.752;37.884;2023-07-02T00:14:58;0.00;;;0.00;;
54815;SDS011;40715;55.752;37.884;2023-07-02T00:17:25;0.00;;;0.00;;
54815;SDS011;40715;55.752;37.884;2023-07-02T00:19:52;0.00;;;0.00;;
54815;SDS011;40715;55.752;37.884;2023-07-02T00:22:21;0.00;;;0.00;;
54815;SDS011;40715;55.752;37.884;2023-07-02T00:24:49;0.00;;;0.00;;
54815;SDS011;40715;55.752;37.884;2023-07-02T00:27:22;0.00;;;0.00;;
54815;SDS011;40715;55.752;37.884;2023-07-02T00:29:49;0.00;;;0.00;;
54815;SDS011;40715;55.752;37.884;2023-07-02T00:32:16;0.00;;;0.00;;
54815;SDS011;40715;55.752;37.884;2023-07-02T00:34:43;0.00;;;0.00;;
54815;SDS011;40715;55.752;37.884;2023-07-02T00:37:11;0.00;;;0.00;;
54815;SDS011;40715;55.752;37.884;2023-07-02T00:39:38;0.00;;;0.00;;
54815;SDS011;40715;55.752;37.884;2023-07-02T00:42:05;0.00;;;0.00;;
54815;SDS011;40715;55.752;37.884;2023-07-02T00:44:32;0.00;;;0.00;;
54815;SDS011;40715;55.752;37.884;2023-07-02T00:46:59;0.00;;;0.00;;
54815;SDS011;40715;55.752;37.884;2023-07-02T00:49:26;0.00;;;0.00;;
54815;SDS011;40715;55.752;37.884;2023-07-02T00:51:53;0.00;;;0.00;;
54815;SDS011;40715;55.752;37.884;2023-07-02T00:54:21;0.00;;;0.00;;
54815;SDS011;40715;55.752;37.884;2023-07-02T00:56:48;0.00;;;0.00;;
54815;SDS011;40715;55.752;37.884;2023-07-02T00:59:16;0.00;;;0.00;;
54815;SDS011;40715;55.752;37.884;2023-07-02T01:01:44;0.00;;;0.00;;
54815;SDS011;40715;55.752;37.884;2023-07-02T01:04:19;0.00;;;0.00;;
54815;SDS011;40715;55.752;37.884;2023-07-02T01:06:46;0.00;;;0.00;;
54815;SDS011;40715;55.752;37.884;2023-07-02T01:09:13;0.00;;;0.00;;
54815;SDS011;40715;55.752;37.884;2023-07-02T01:11:42;0.00;;;0.00;;
54815;SDS011;40715;55.752;37.884;2023-07-02T01:14:23;0.00;;;0.00;;
54815;SDS011;40715;55.752;37.884;2023-07-02T01:16:54;0.00;;;0.00;;
54815;SDS011;40715;55.752;37.884;2023-07-02T01:22:22;0.00;;;0.00;;
54815;SDS011;40715;55.752;37.884;2023-07-02T01:24:51;0.00;;;0.00;;
54815;SDS011;40715;55.752;37.884;2023-07-02T01:27:19;0.00;;;0.00;;
54815;SDS011;40715;55.752;37.884;2023-07-02T01:29:50;0.00;;;0.00;;
54815;SDS011;40715;55.752;37.884;2023-07-02T01:32:18;0.00;;;0.00;;
54815;SDS011;40715;55.752;37.884;2023-07-02T01:34:47;0.00;;;0.00;;
54815;SDS011;40715;55.752;37.884;2023-07-02T01:37:15;0.00;;;0.00;;
54815;SDS011;40715;55.752;37.884;2023-07-02T01:39:46;0.00;;;0.00;;
54815;SDS011;40715;55.752;37.884;2023-07-02T01:42:14;0.00;;;0.00;;
54815;SDS011;40715;55.752;37.884;2023-07-02T01:44:43;0.00;;;0.00;;
54815;SDS011;40715;55.752;37.884;2023-07-02T01:47:11;0.00;;;0.00;;
54815;SDS011;40715;55.752;37.884;2023-07-02T01:49:39;0.00;;;0.00;;
54815;SDS011;40715;55.752;37.884;2023-07-02T01:52:06;0.00;;;0.00;;
54815;SDS011;40715;55.752;37.884;2023-07-02T01:54:34;0.00;;;0.00;;
54815;SDS011;40715;55.752;37.884;2023-07-02T01:57:03;0.00;;;0.00;;
54815;SDS011;40715;55.752;37.884;2023-07-02T01:59:31;0.00;;;0.00;;
54815;SDS011;40715;55.752;37.884;2023-07-02T02:01:58;0.00;;;0.00;;
54815;SDS011;40715;55.752;37.884;2023-07-02T02:04:25;0.00;;;0.00;;
54815;SDS011;40715;55.752;37.884;2023-07-02T02:06:53;0.00;;;0.00;;
54815;SDS011;40715;55.752;37.884;2023-07-02T02:09:21;0.00;;;0.00;;
54815;SDS011;40715;55.752;37.884;2023-07-02T02:11:49;0.00;;;0.00;;
54815;SDS011;40715;55.752;37.884;2023-07-02T02:14:17;0.00;;;0.00;;
54815;SDS011;40715;55.752;37.884;2023-07-02T02:16:45;0.00;;;0.00;;
54815;SDS011;40715;55.752;37.884;2023-07-02T02:19:12;0.00;;;0.00;;
54815;SDS011;40715;55.752;37.884;2023-07-02T02:21:41;0.00;;;0.00;;
54815;SDS011;40715;55.752;37.884;2023-07-02T02:24:10;0.00;;;0.00;;
54815;SDS011;40715;55.752;37.884;2023-07-02T02:26:38;0.00;;;0.00;;
54815;SDS011;40715;55.752;37.884;2023-07-02T02:29:05;0.00;;;0.00;;
54815;SDS011;40715;55.752;37.884;2023-07-02T02:31:32;0.00;;;0.00;;
54815;SDS011;40715;55.752;37.884;2023-07-02T02:33:59;0.00;;;0.00;;
54815;SDS011;40715;55.752;37.884;2023-07-02T02:36:27;0.00;;;0.00;;
54815;SDS011;40715;55.752;37.884;2023-07-02T02:38:54;0.00;;;0.00;;
54815;SDS011;40715;55.752;37.884;2023-07-02T02:41:21;0.00;;;0.00;;
54815;SDS011;40715;55.752;37.884;2023-07-02T02:43:48;0.00;;;0.00;;
54815;SDS011;40715;55.752;37.884;2023-07-02T02:46:19;0.00;;;0.00;;
54815;SDS011;40715;55.752;37.884;2023-07-02T02:48:48;0.00;;;0.00;;
54815;SDS011;40715;55.752;37.884;2023-07-02T02:51:16;0.00;;;0.00;;
54815;SDS011;40715;55.752;37.884;2023-07-02T02:53:43;0.00;;;0.00;;
54815;SDS011;40715;55.752;37.884;2023-07-02T02:56:10;0.00;;;0.00;;
54815;SDS011;40715;55.752;37.884;2023-07-02T02:58:37;0.00;;;0.00;;
54815;SDS011;40715;55.752;37.884;2023-07-02T03:01:04;0.00;;;0.00;;
54815;SDS011;40715;55.752;37.884;2023-07-02T03:03:40;0.00;;;0.00;;
54815;SDS011;40715;55.752;37.884;2023-07-02T03:06:15;0.00;;;0.00;;
54815;SDS011;40715;55.752;37.884;2023-07-02T03:08:42;0.00;;;0.00;;
54815;SDS011;40715;55.752;37.884;2023-07-02T03:11:09;0.00;;;0.00;;
54815;SDS011;40715;55.752;37.884;2023-07-02T03:13:39;0.00;;;0.00;;
54815;SDS011;40715;55.752;37.884;2023-07-02T03:16:08;0.00;;;0.00;;
54815;SDS011;40715;55.752;37.884;2023-07-02T03:18:35;0.00;;;0.00;;
54815;SDS011;40715;55.752;37.884;2023-07-02T03:21:02;0.00;;;0.00;;
54815;SDS011;40715;55.752;37.884;2023-07-02T03:23:29;0.00;;;0.00;;
54815;SDS011;40715;55.752;37.884;2023-07-02T03:25:56;0.00;;;0.00;;
54815;SDS011;40715;55.752;37.884;2023-07-02T03:28:23;0.00;;;0.00;;
54815;SDS011;40715;55.752;37.884;2023-07-02T03:30:50;0.00;;;0.00;;
54815;SDS011;40715;55.752;37.884;2023-07-02T03:33:18;0.00;;;0.00;;
54815;SDS011;40715;55.752;37.884;2023-07-02T03:35:45;0.00;;;0.00;;
54815;SDS011;40715;55.752;37.884;2023-07-02T03:38:12;0.00;;;0.00;;
54815;SDS011;40715;55.752;37.884;2023-07-02T03:40:39;0.00;;;0.00;;
54815;SDS011;40715;55.752;37.884;2023-07-02T03:43:06;0.00;;;0.00;;
54815;SDS011;40715;55.752;37.884;2023-07-02T03:45:33;0.00;;;0.00;;
54815;SDS011;40715;55.752;37.884;2023-07-02T03:48:00;0.00;;;0.00;;
54815;SDS011;40715;55.752;37.884;2023-07-02T03:50:27;0.00;;;0.00;;
54815;SDS011;40715;55.752;37.884;2023-07-02T03:52:54;0.00;;;0.00;;
54815;SDS011;40715;55.752;37.884;2023-07-02T03:55:21;0.00;;;0.00;;
54815;SDS011;40715;55.752;37.884;2023-07-02T03:57:48;0.00;;;0.00;;
54815;SDS011;40715;55.752;37.884;2023-07-02T04:00:15;0.00;;;0.00;;
54815;SDS011;40715;55.752;37.884;2023-07-02T04:02:43;0.00;;;0.00;;
54815;SDS011;40715;55.752;37.884;2023-07-02T04:05:10;0.00;;;0.00;;
54815;SDS011;40715;55.752;37.884;2023-07-02T04:07:37;0.00;;;0.00;;
54815;SDS011;40715;55.752;37.884;2023-07-02T04:10:04;0.00;;;0.00;;
54815;SDS011;40715;55.752;37.884;2023-07-02T04:12:32;0.00;;;0.00;;
54815;SDS011;40715;55.752;37.884;2023-07-02T04:14:59;0.00;;;0.00;;
54815;SDS011;40715;55.752;37.884;2023-07-02T04:17:26;0.00;;;0.00;;
54815;SDS011;40715;55.752;37.884;2023-07-02T04:19:53;0.00;;;0.00;;
54815;SDS011;40715;55.752;37.884;2023-07-02T04:22:21;0.00;;;0.00;;
54815;SDS011;40715;55.752;37.884;2023-07-02T04:24:48;0.00;;;0.00;;
54815;SDS011;40715;55.752;37.884;2023-07-02T04:27:16;0.00;;;0.00;;
54815;SDS011;40715;55.752;37.884;2023-07-02T04:30:02;0.00;;;0.00;;
54815;SDS011;40715;55.752;37.884;2023-07-02T04:32:31;0.00;;;0.00;;
54815;SDS011;40715;55.752;37.884;2023-07-02T04:34:59;0.00;;;0.00;;
54815;SDS011;40715;55.752;37.884;2023-07-02T04:37:27;0.00;;;0.00;;
54815;SDS011;40715;55.752;37.884;2023-07-02T04:39:55;0.00;;;0.00;;
54815;SDS011;40715;55.752;37.884;2023-07-02T04:42:22;0.00;;;0.00;;
54815;SDS011;40715;55.752;37.884;2023-07-02T04:44:54;0.00;;;0.00;;
54815;SDS011;40715;55.752;37.884;2023-07-02T04:47:22;0.00;;;0.00;;
54815;SDS011;40715;55.752;37.884;2023-07-02T04:49:49;0.00;;;0.00;;
54815;SDS011;40715;55.752;37.884;2023-07-02T04:52:16;0.00;;;0.00;;
54815;SDS011;40715;55.752;37.884;2023-07-02T04:54:43;0.00;;;0.00;;
54815;SDS011;40715;55.752;37.884;2023-07-02T04:57:10;0.00;;;0.00;;
54815;SDS011;40715;55.752;37.884;2023-07-02T04:59:37;0.00;;;0.00;;
54815;SDS011;40715;55.752;37.884;2023-07-02T05:02:04;0.00;;;0.00;;
54815;SDS011;40715;55.752;37.884;2023-07-02T05:04:31;0.00;;;0.00;;
54815;SDS011;40715;55.752;37.884;2023-07-02T05:06:59;0.00;;;0.00;;
54815;SDS011;40715;55.752;37.884;2023-07-02T05:09:27;0.00;;;0.00;;
54815;SDS011;40715;55.752;37.884;2023-07-02T05:11:53;0.00;;;0.00;;
54815;SDS011;40715;55.752;37.884;2023-07-02T05:14:21;0.00;;;0.00;;
54815;SDS011;40715;55.752;37.884;2023-07-02T05:16:51;0.00;;;0.00;;
54815;SDS011;40715;55.752;37.884;2023-07-02T05:19:18;0.00;;;0.00;;
54815;SDS011;40715;55.752;37.884;2023-07-02T05:21:45;0.00;;;0.00;;
54815;SDS011;40715;55.752;37.884;2023-07-02T05:24:12;0.00;;;0.00;;
54815;SDS011;40715;55.752;37.884;2023-07-02T05:26:39;0.00;;;0.00;;
54815;SDS011;40715;55.752;37.884;2023-07-02T05:29:07;0.00;;;0.00;;
54815;SDS011;40715;55.752;37.884;2023-07-02T05:31:34;0.00;;;0.00;;
54815;SDS011;40715;55.752;37.884;2023-07-02T05:34:01;0.00;;;0.00;;
54815;SDS011;40715;55.752;37.884;2023-07-02T05:36:28;0.10;;;0.10;;
54815;SDS011;40715;55.752;37.884;2023-07-02T05:38:55;0.00;;;0.00;;
54815;SDS011;40715;55.752;37.884;2023-07-02T05:41:22;0.00;;;0.00;;
54815;SDS011;40715;55.752;37.884;2023-07-02T05:43:49;0.00;;;0.00;;
54815;SDS011;40715;55.752;37.884;2023-07-02T05:46:16;0.00;;;0.00;;
54815;SDS011;40715;55.752;37.884;2023-07-02T05:48:43;0.00;;;0.00;;
54815;SDS011;40715;55.752;37.884;2023-07-02T05:51:10;0.00;;;0.00;;
54815;SDS011;40715;55.752;37.884;2023-07-02T05:53:37;0.00;;;0.00;;
54815;SDS011;40715;55.752;37.884;2023-07-02T05:56:04;0.08;;;0.08;;
54815;SDS011;40715;55.752;37.884;2023-07-02T05:58:31;0.00;;;0.00;;
54815;SDS011;40715;55.752;37.884;2023-07-02T06:01:12;0.10;;;0.10;;
54815;SDS011;40715;55.752;37.884;2023-07-02T06:03:41;0.00;;;0.00;;
54815;SDS011;40715;55.752;37.884;2023-07-02T06:06:11;0.10;;;0.10;;
54815;SDS011;40715;55.752;37.884;2023-07-02T06:08:38;0.00;;;0.00;;
54815;SDS011;40715;55.752;37.884;2023-07-02T06:11:05;0.10;;;0.10;;
54815;SDS011;40715;55.752;37.884;2023-07-02T06:13:32;0.00;;;0.00;;
54815;SDS011;40715;55.752;37.884;2023-07-02T06:15:59;0.00;;;0.00;;
54815;SDS011;40715;55.752;37.884;2023-07-02T06:18:26;0.10;;;0.10;;
54815;SDS011;40715;55.752;37.884;2023-07-02T06:20:53;0.10;;;0.10;;
54815;SDS011;40715;55.752;37.884;2023-07-02T06:23:21;0.10;;;0.10;;
54815;SDS011;40715;55.752;37.884;2023-07-02T06:25:48;0.10;;;0.10;;
54815;SDS011;40715;55.752;37.884;2023-07-02T06:28:15;0.10;;;0.10;;
54815;SDS011;40715;55.752;37.884;2023-07-02T06:30:42;0.10;;;0.10;;
54815;SDS011;40715;55.752;37.884;2023-07-02T06:33:09;0.10;;;0.10;;
54815;SDS011;40715;55.752;37.884;2023-07-02T06:35:36;0.10;;;0.10;;
54815;SDS011;40715;55.752;37.884;2023-07-02T06:38:03;0.10;;;0.10;;
54815;SDS011;40715;55.752;37.884;2023-07-02T06:40:30;0.10;;;0.10;;
54815;SDS011;40715;55.752;37.884;2023-07-02T06:42:57;0.10;;;0.10;;
54815;SDS011;40715;55.752;37.884;2023-07-02T06:45:24;0.10;;;0.10;;
54815;SDS011;40715;55.752;37.884;2023-07-02T06:47:51;0.10;;;0.10;;
54815;SDS011;40715;55.752;37.884;2023-07-02T06:50:18;0.10;;;0.10;;
54815;SDS011;40715;55.752;37.884;2023-07-02T06:52:46;0.10;;;0.10;;
54815;SDS011;40715;55.752;37.884;2023-07-02T06:55:13;0.10;;;0.10;;
54815;SDS011;40715;55.752;37.884;2023-07-02T06:57:43;0.10;;;0.10;;
54815;SDS011;40715;55.752;37.884;2023-07-02T07:00:12;0.10;;;0.10;;
54815;SDS011;40715;55.752;37.884;2023-07-02T07:02:40;0.10;;;0.10;;
54815;SDS011;40715;55.752;37.884;2023-07-02T07:05:08;0.10;;;0.10;;
54815;SDS011;40715;55.752;37.884;2023-07-02T07:07:36;0.10;;;0.10;;
54815;SDS011;40715;55.752;37.884;2023-07-02T07:10:03;0.10;;;0.10;;
54815;SDS011;40715;55.752;37.884;2023-07-02T07:12:31;0.10;;;0.10;;
54815;SDS011;40715;55.752;37.884;2023-07-02T07:14:59;0.10;;;0.10;;
54815;SDS011;40715;55.752;37.884;2023-07-02T07:17:26;0.10;;;0.10;;
54815;SDS011;40715;55.752;37.884;2023-07-02T07:19:53;0.10;;;0.10;;
54815;SDS011;40715;55.752;37.884;2023-07-02T07:22:21;0.10;;;0.10;;
54815;SDS011;40715;55.752;37.884;2023-07-02T07:24:48;0.10;;;0.10;;
54815;SDS011;40715;55.752;37.884;2023-07-02T07:27:15;0.20;;;0.20;;
54815;SDS011;40715;55.752;37.884;2023-07-02T07:29:42;0.10;;;0.10;;
54815;SDS011;40715;55.752;37.884;2023-07-02T07:32:09;0.30;;;0.30;;
54815;SDS011;40715;55.752;37.884;2023-07-02T07:34:36;0.30;;;0.30;;
54815;SDS011;40715;55.752;37.884;2023-07-02T07:37:03;0.30;;;0.30;;
54815;SDS011;40715;55.752;37.884;2023-07-02T07:39:32;0.10;;;0.10;;
54815;SDS011;40715;55.752;37.884;2023-07-02T07:41:59;0.10;;;0.10;;
54815;SDS011;40715;55.752;37.884;2023-07-02T07:44:26;0.30;;;0.30;;
54815;SDS011;40715;55.752;37.884;2023-07-02T07:46:56;0.30;;;0.30;;
54815;SDS011;40715;55.752;37.884;2023-07-02T07:49:23;0.40;;;0.40;;
54815;SDS011;40715;55.752;37.884;2023-07-02T07:51:50;0.40;;;0.40;;
54815;SDS011;40715;55.752;37.884;2023-07-02T07:54:18;0.55;;;0.55;;
54815;SDS011;40715;55.752;37.884;2023-07-02T07:56:45;0.60;;;0.60;;
54815;SDS011;40715;55.752;37.884;2023-07-02T07:59:13;0.70;;;0.70;;
54815;SDS011;40715;55.752;37.884;2023-07-02T08:01:41;0.40;;;0.40;;
54815;SDS011;40715;55.752;37.884;2023-07-02T08:04:08;0.50;;;0.50;;
54815;SDS011;40715;55.752;37.884;2023-07-02T08:06:37;0.45;;;0.45;;
54815;SDS011;40715;55.752;37.884;2023-07-02T08:09:04;0.60;;;0.60;;
54815;SDS011;40715;55.752;37.884;2023-07-02T08:11:32;0.60;;;0.60;;
54815;SDS011;40715;55.752;37.884;2023-07-02T08:16:55;0.82;;;0.82;;
54815;SDS011;40715;55.752;37.884;2023-07-02T08:19:22;0.80;;;0.80;;
54815;SDS011;40715;55.752;37.884;2023-07-02T08:21:52;0.80;;;0.80;;
54815;SDS011;40715;55.752;37.884;2023-07-02T08:24:19;0.75;;;0.75;;
54815;SDS011;40715;55.752;37.884;2023-07-02T08:26:46;0.70;;;0.70;;
54815;SDS011;40715;55.752;37.884;2023-07-02T08:29:14;0.60;;;0.60;;
54815;SDS011;40715;55.752;37.884;2023-07-02T08:31:41;0.70;;;0.70;;
54815;SDS011;40715;55.752;37.884;2023-07-02T08:34:09;0.60;;;0.60;;
54815;SDS011;40715;55.752;37.884;2023-07-02T08:36:36;0.30;;;0.30;;
54815;SDS011;40715;55.752;37.884;2023-07-02T08:39:04;0.60;;;0.60;;
54815;SDS011;40715;55.752;37.884;2023-07-02T08:41:41;0.50;;;0.50;;
54815;SDS011;40715;55.752;37.884;2023-07-02T08:44:12;0.40;;;0.40;;
54815;SDS011;40715;55.752;37.884;2023-07-02T08:46:40;0.10;;;0.10;;
54815;SDS011;40715;55.752;37.884;2023-07-02T08:49:08;0.10;;;0.10;;
54815;SDS011;40715;55.752;37.884;2023-07-02T08:51:36;0.20;;;0.20;;
54815;SDS011;40715;55.752;37.884;2023-07-02T08:54:03;0.10;;;0.10;;
54815;SDS011;40715;55.752;37.884;2023-07-02T08:56:31;0.10;;;0.10;;
54815;SDS011;40715;55.752;37.884;2023-07-02T08:58:58;0.10;;;0.10;;
54815;SDS011;40715;55.752;37.884;2023-07-02T09:01:25;0.10;;;0.10;;
54815;SDS011;40715;55.752;37.884;2023-07-02T09:03:57;0.10;;;0.10;;
54815;SDS011;40715;55.752;37.884;2023-07-02T09:06:26;0.00;;;0.00;;
54815;SDS011;40715;55.752;37.884;2023-07-02T09:09:02;0.00;;;0.00;;
54815;SDS011;40715;55.752;37.884;2023-07-02T09:11:30;0.00;;;0.00;;
54815;SDS011;40715;55.752;37.884;2023-07-02T09:13:57;0.00;;;0.00;;
54815;SDS011;40715;55.752;37.884;2023-07-02T09:16:28;0.00;;;0.00;;
54815;SDS011;40715;55.752;37.884;2023-07-02T09:19:05;0.00;;;0.00;;
54815;SDS011;40715;55.752;37.884;2023-07-02T09:21:40;0.00;;;0.00;;
54815;SDS011;40715;55.752;37.884;2023-07-02T09:24:15;0.00;;;0.00;;
54815;SDS011;40715;55.752;37.884;2023-07-02T09:26:43;0.00;;;0.00;;
54815;SDS011;40715;55.752;37.884;2023-07-02T09:29:11;0.00;;;0.00;;
54815;SDS011;40715;55.752;37.884;2023-07-02T09:31:43;0.00;;;0.00;;
54815;SDS011;40715;55.752;37.884;2023-07-02T09:34:35;0.00;;;0.00;;
54815;SDS011;40715;55.752;37.884;2023-07-02T09:37:06;0.00;;;0.00;;
54815;SDS011;40715;55.752;37.884;2023-07-02T09:39:33;0.00;;;0.00;;
54815;SDS011;40715;55.752;37.884;2023-07-02T09:42:02;0.00;;;0.00;;
54815;SDS011;40715;55.752;37.884;2023-07-02T09:44:36;0.00;;;0.00;;
54815;SDS011;40715;55.752;37.884;2023-07-02T09:47:08;0.00;;;0.00;;
54815;SDS011;40715;55.752;37.884;2023-07-02T09:49:37;0.00;;;0.00;;
54815;SDS011;40715;55.752;37.884;2023-07-02T09:52:11;0.00;;;0.00;;
54815;SDS011;40715;55.752;37.884;2023-07-02T09:54:41;0.00;;;0.00;;
54815;SDS011;40715;55.752;37.884;2023-07-02T09:57:08;0.00;;;0.00;;
54815;SDS011;40715;55.752;37.884;2023-07-02T09:59:35;0.00;;;0.00;;
54815;SDS011;40715;55.752;37.884;2023-07-02T10:02:05;0.00;;;0.00;;
54815;SDS011;40715;55.752;37.884;2023-07-02T10:04:40;0.00;;;0.00;;
54815;SDS011;40715;55.752;37.884;2023-07-02T10:07:12;0.00;;;0.00;;
54815;SDS011;40715;55.752;37.884;2023-07-02T10:09:52;0.00;;;0.00;;
54815;SDS011;40715;55.752;37.884;2023-07-02T10:12:26;0.00;;;0.00;;
54815;SDS011;40715;55.752;37.884;2023-07-02T10:14:55;0.00;;;0.00;;
54815;SDS011;40715;55.752;37.884;2023-07-02T10:17:24;0.00;;;0.00;;
54815;SDS011;40715;55.752;37.884;2023-07-02T10:20:01;0.00;;;0.00;;
54815;SDS011;40715;55.752;37.884;2023-07-02T10:25:11;0.00;;;0.00;;
54815;SDS011;40715;55.752;37.884;2023-07-02T10:27:39;0.00;;;0.00;;
54815;SDS011;40715;55.752;37.884;2023-07-02T10:30:07;0.00;;;0.00;;
54815;SDS011;40715;55.752;37.884;2023-07-02T10:32:36;0.00;;;0.00;;
54815;SDS011;40715;55.752;37.884;2023-07-02T10:35:14;0.00;;;0.00;;
54815;SDS011;40715;55.752;37.884;2023-07-02T10:37:42;0.00;;;0.00;;
54815;SDS011;40715;55.752;37.884;2023-07-02T10:40:10;0.00;;;0.00;;
54815;SDS011;40715;55.752;37.884;2023-07-02T10:42:48;0.00;;;0.00;;
54815;SDS011;40715;55.752;37.884;2023-07-02T10:45:16;0.00;;;0.00;;
54815;SDS011;40715;55.752;37.884;2023-07-02T10:47:43;0.00;;;0.00;;
54815;SDS011;40715;55.752;37.884;2023-07-02T10:50:20;0.00;;;0.00;;
54815;SDS011;40715;55.752;37.884;2023-07-02T10:52:48;0.00;;;0.00;;
54815;SDS011;40715;55.752;37.884;2023-07-02T10:55:19;0.00;;;0.00;;
54815;SDS011;40715;55.752;37.884;2023-07-02T10:57:47;0.00;;;0.00;;
54815;SDS011;40715;55.752;37.884;2023-07-02T11:00:18;0.00;;;0.00;;
54815;SDS011;40715;55.752;37.884;2023-07-02T11:02:46;0.00;;;0.00;;
54815;SDS011;40715;55.752;37.884;2023-07-02T11:05:14;0.00;;;0.00;;
54815;SDS011;40715;55.752;37.884;2023-07-02T11:07:41;0.00;;;0.00;;
54815;SDS011;40715;55.752;37.884;2023-07-02T11:10:09;0.00;;;0.00;;
54815;SDS011;40715;55.752;37.884;2023-07-02T11:12:38;0.00;;;0.00;;
54815;SDS011;40715;55.752;37.884;2023-07-02T11:15:09;0.00;;;0.00;;
54815;SDS011;40715;55.752;37.884;2023-07-02T11:17:40;0.00;;;0.00;;
54815;SDS011;40715;55.752;37.884;2023-07-02T11:20:09;0.00;;;0.00;;
54815;SDS011;40715;55.752;37.884;2023-07-02T11:22:37;0.00;;;0.00;;
54815;SDS011;40715;55.752;37.884;2023-07-02T11:25:09;0.00;;;0.00;;
54815;SDS011;40715;55.752;37.884;2023-07-02T11:27:36;0.00;;;0.00;;
54815;SDS011;40715;55.752;37.884;2023-07-02T11:30:04;0.00;;;0.00;;
54815;SDS011;40715;55.752;37.884;2023-07-02T11:32:35;0.00;;;0.00;;
54815;SDS011;40715;55.752;37.884;2023-07-02T11:35:35;0.00;;;0.00;;
54815;SDS011;40715;55.752;37.884;2023-07-02T11:38:02;0.00;;;0.00;;
54815;SDS011;40715;55.752;37.884;2023-07-02T11:40:29;0.00;;;0.00;;
54815;SDS011;40715;55.752;37.884;2023-07-02T11:42:56;0.00;;;0.00;;
54815;SDS011;40715;55.752;37.884;2023-07-02T11:45:23;0.00;;;0.00;;
54815;SDS011;40715;55.752;37.884;2023-07-02T11:48:08;0.00;;;0.00;;
54815;SDS011;40715;55.752;37.884;2023-07-02T11:50:35;0.00;;;0.00;;
54815;SDS011;40715;55.752;37.884;2023-07-02T11:53:14;0.00;;;0.00;;
54815;SDS011;40715;55.752;37.884;2023-07-02T11:55:41;0.00;;;0.00;;
54815;SDS011;40715;55.752;37.884;2023-07-02T11:58:11;0.00;;;0.00;;
54815;SDS011;40715;55.752;37.884;2023-07-02T12:00:38;0.00;;;0.00;;
54815;SDS011;40715;55.752;37.884;2023-07-02T12:03:05;0.00;;;0.00;;
54815;SDS011;40715;55.752;37.884;2023-07-02T12:05:33;0.00;;;0.00;;
54815;SDS011;40715;55.752;37.884;2023-07-02T12:08:01;0.00;;;0.00;;
54815;SDS011;40715;55.752;37.884;2023-07-02T12:10:28;0.00;;;0.00;;
54815;SDS011;40715;55.752;37.884;2023-07-02T12:12:55;0.00;;;0.00;;
54815;SDS011;40715;55.752;37.884;2023-07-02T12:15:22;0.00;;;0.00;;
54815;SDS011;40715;55.752;37.884;2023-07-02T12:17:49;0.00;;;0.00;;
54815;SDS011;40715;55.752;37.884;2023-07-02T12:20:17;0.00;;;0.00;;
54815;SDS011;40715;55.752;37.884;2023-07-02T12:22:44;0.00;;;0.00;;
54815;SDS011;40715;55.752;37.884;2023-07-02T12:25:11;0.00;;;0.00;;
54815;SDS011;40715;55.752;37.884;2023-07-02T12:27:38;0.00;;;0.00;;
54815;SDS011;40715;55.752;37.884;2023-07-02T12:30:06;0.00;;;0.00;;
54815;SDS011;40715;55.752;37.884;2023-07-02T12:32:34;0.00;;;0.00;;
54815;SDS011;40715;55.752;37.884;2023-07-02T12:35:02;0.00;;;0.00;;
54815;SDS011;40715;55.752;37.884;2023-07-02T12:37:31;0.00;;;0.00;;
54815;SDS011;40715;55.752;37.884;2023-07-02T12:39:58;0.00;;;0.00;;
54815;SDS011;40715;55.752;37.884;2023-07-02T12:42:25;0.00;;;0.00;;
54815;SDS011;40715;55.752;37.884;2023-07-02T12:44:52;0.00;;;0.00;;
54815;SDS011;40715;55.752;37.884;2023-07-02T12:47:20;0.00;;;0.00;;
54815;SDS011;40715;55.752;37.884;2023-07-02T12:49:50;0.00;;;0.00;;
54815;SDS011;40715;55.752;37.884;2023-07-02T12:52:17;0.00;;;0.00;;
54815;SDS011;40715;55.752;37.884;2023-07-02T12:54:46;0.00;;;0.00;;
54815;SDS011;40715;55.752;37.884;2023-07-02T12:57:13;0.00;;;0.00;;
54815;SDS011;40715;55.752;37.884;2023-07-02T12:59:41;0.00;;;0.00;;
54815;SDS011;40715;55.752;37.884;2023-07-02T13:02:31;0.00;;;0.00;;
54815;SDS011;40715;55.752;37.884;2023-07-02T13:04:58;0.00;;;0.00;;
54815;SDS011;40715;55.752;37.884;2023-07-02T13:07:27;0.00;;;0.00;;
54815;SDS011;40715;55.752;37.884;2023-07-02T13:09:56;0.00;;;0.00;;
54815;SDS011;40715;55.752;37.884;2023-07-02T13:12:23;0.00;;;0.00;;
54815;SDS011;40715;55.752;37.884;2023-07-02T13:14:51;0.00;;;0.00;;
54815;SDS011;40715;55.752;37.884;2023-07-02T13:17:18;0.00;;;0.00;;
54815;SDS011;40715;55.752;37.884;2023-07-02T13:19:45;0.00;;;0.00;;
54815;SDS011;40715;55.752;37.884;2023-07-02T13:22:12;0.00;;;0.00;;
54815;SDS011;40715;55.752;37.884;2023-07-02T13:24:39;0.00;;;0.00;;
54815;SDS011;40715;55.752;37.884;2023-07-02T13:27:09;0.00;;;0.00;;
54815;SDS011;40715;55.752;37.884;2023-07-02T13:29:40;0.00;;;0.00;;
54815;SDS011;40715;55.752;37.884;2023-07-02T13:32:07;0.00;;;0.00;;
54815;SDS011;40715;55.752;37.884;2023-07-02T13:34:34;0.00;;;0.00;;
54815;SDS011;40715;55.752;37.884;2023-07-02T13:37:01;0.00;;;0.00;;
54815;SDS011;40715;55.752;37.884;2023-07-02T13:39:29;0.00;;;0.00;;
54815;SDS011;40715;55.752;37.884;2023-07-02T13:42:14;0.00;;;0.00;;
54815;SDS011;40715;55.752;37.884;2023-07-02T13:44:59;0.00;;;0.00;;
54815;SDS011;40715;55.752;37.884;2023-07-02T13:47:30;0.00;;;0.00;;
54815;SDS011;40715;55.752;37.884;2023-07-02T13:49:57;0.00;;;0.00;;
54815;SDS011;40715;55.752;37.884;2023-07-02T13:52:24;0.00;;;0.00;;
54815;SDS011;40715;55.752;37.884;2023-07-02T13:54:51;0.00;;;0.00;;
54815;SDS011;40715;55.752;37.884;2023-07-02T13:57:18;0.00;;;0.00;;
54815;SDS011;40715;55.752;37.884;2023-07-02T13:59:45;0.00;;;0.00;;
54815;SDS011;40715;55.752;37.884;2023-07-02T14:02:12;0.00;;;0.00;;
54815;SDS011;40715;55.752;37.884;2023-07-02T14:04:40;0.00;;;0.00;;
54815;SDS011;40715;55.752;37.884;2023-07-02T14:07:07;0.00;;;0.00;;
54815;SDS011;40715;55.752;37.884;2023-07-02T14:09:34;0.00;;;0.00;;
54815;SDS011;40715;55.752;37.884;2023-07-02T14:12:02;0.00;;;0.00;;
54815;SDS011;40715;55.752;37.884;2023-07-02T14:14:30;0.00;;;0.00;;
54815;SDS011;40715;55.752;37.884;2023-07-02T14:16:57;0.00;;;0.00;;
54815;SDS011;40715;55.752;37.884;2023-07-02T14:19:24;0.00;;;0.00;;
54815;SDS011;40715;55.752;37.884;2023-07-02T14:21:51;0.00;;;0.00;;
54815;SDS011;40715;55.752;37.884;2023-07-02T14:24:18;0.00;;;0.00;;
54815;SDS011;40715;55.752;37.884;2023-07-02T14:26:45;0.00;;;0.00;;
54815;SDS011;40715;55.752;37.884;2023-07-02T14:29:12;0.00;;;0.00;;
54815;SDS011;40715;55.752;37.884;2023-07-02T14:31:39;0.00;;;0.00;;
54815;SDS011;40715;55.752;37.884;2023-07-02T14:34:06;0.00;;;0.00;;
54815;SDS011;40715;55.752;37.884;2023-07-02T14:36:33;0.00;;;0.00;;
54815;SDS011;40715;55.752;37.884;2023-07-02T14:39:18;0.00;;;0.00;;
54815;SDS011;40715;55.752;37.884;2023-07-02T14:41:48;0.00;;;0.00;;
54815;SDS011;40715;55.752;37.884;2023-07-02T14:44:15;0.00;;;0.00;;
54815;SDS011;40715;55.752;37.884;2023-07-02T14:46:42;0.00;;;0.00;;
54815;SDS011;40715;55.752;37.884;2023-07-02T14:49:09;0.00;;;0.00;;